sensor_id;sensor_type;location;lat;lon;timestamp;P1;durP1;ratioP1;P2;durP2;ratioP2
4504;SDS011;2265;48.794;9.520;2023-10-13T00:01:47;9.27;;;5.07;;
4504;SDS011;2265;48.794;9.520;2023-10-13T00:04:17;15.23;;;5.40;;
4504;SDS011;2265;48.794;9.520;2023-10-13T00:06:47;12.40;;;5.97;;
4504;SDS011;2265;48.794;9.520;2023-10-13T00:09:14;10.00;;;5.60;;
4504;SDS011;2265;48.794;9.520;2023-10-13T00:11:42;11.10;;;5.73;;
4504;SDS011;2265;48.794;9.520;2023-10-13T00:14:12;13.73;;;5.10;;
4504;SDS011;2265;48.794;9.520;2023-10-13T00:16:42;12.90;;;5.83;;
4504;SDS011;2265;48.794;9.520;2023-10-13T00:19:26;9.93;;;5.47;;
4504;SDS011;2265;48.794;9.520;2023-10-13T00:21:54;9.50;;;5.20;;
4504;SDS011;2265;48.794;9.520;2023-10-13T00:24:28;12.47;;;5.47;;
4504;SDS011;2265;48.794;9.520;2023-10-13T00:27:04;10.70;;;5.10;;
4504;SDS011;2265;48.794;9.520;2023-10-13T00:29:37;11.20;;;5.57;;
4504;SDS011;2265;48.794;9.520;2023-10-13T00:32:05;9.77;;;5.60;;
4504;SDS011;2265;48.794;9.520;2023-10-13T00:34:37;12.67;;;5.50;;
4504;SDS011;2265;48.794;9.520;2023-10-13T00:37:04;12.80;;;6.20;;
4504;SDS011;2265;48.794;9.520;2023-10-13T00:39:43;9.77;;;5.50;;
4504;SDS011;2265;48.794;9.520;2023-10-13T00:42:10;9.17;;;5.30;;
4504;SDS011;2265;48.794;9.520;2023-10-13T00:44:46;10.70;;;5.40;;
4504;SDS011;2265;48.794;9.520;2023-10-13T00:47:14;11.90;;;5.93;;
4504;SDS011;2265;48.794;9.520;2023-10-13T00:50:03;10.40;;;5.07;;
4504;SDS011;2265;48.794;9.520;2023-10-13T00:52:29;11.00;;;5.63;;
4504;SDS011;2265;48.794;9.520;2023-10-13T00:55:01;9.37;;;5.27;;
4504;SDS011;2265;48.794;9.520;2023-10-13T00:57:29;11.60;;;5.80;;
4504;SDS011;2265;48.794;9.520;2023-10-13T00:59:58;11.53;;;4.87;;
4504;SDS011;2265;48.794;9.520;2023-10-13T01:02:37;11.00;;;5.67;;
4504;SDS011;2265;48.794;9.520;2023-10-13T01:05:05;10.77;;;5.87;;
4504;SDS011;2265;48.794;9.520;2023-10-13T01:07:34;10.37;;;5.53;;
4504;SDS011;2265;48.794;9.520;2023-10-13T01:10:02;8.57;;;4.80;;
4504;SDS011;2265;48.794;9.520;2023-10-13T01:12:29;10.93;;;5.60;;
4504;SDS011;2265;48.794;9.520;2023-10-13T01:14:56;14.90;;;5.13;;
4504;SDS011;2265;48.794;9.520;2023-10-13T01:17:24;10.40;;;5.13;;
4504;SDS011;2265;48.794;9.520;2023-10-13T01:19:57;9.10;;;5.10;;
4504;SDS011;2265;48.794;9.520;2023-10-13T01:22:23;12.87;;;5.80;;
4504;SDS011;2265;48.794;9.520;2023-10-13T01:24:54;9.90;;;5.43;;
4504;SDS011;2265;48.794;9.520;2023-10-13T01:27:30;9.00;;;4.67;;
4504;SDS011;2265;48.794;9.520;2023-10-13T01:30:03;12.87;;;5.63;;
4504;SDS011;2265;48.794;9.520;2023-10-13T01:32:35;10.60;;;5.57;;
4504;SDS011;2265;48.794;9.520;2023-10-13T01:35:06;10.90;;;5.50;;
4504;SDS011;2265;48.794;9.520;2023-10-13T01:37:32;12.83;;;4.90;;
4504;SDS011;2265;48.794;9.520;2023-10-13T01:40:01;16.10;;;5.50;;
4504;SDS011;2265;48.794;9.520;2023-10-13T01:42:28;12.67;;;5.30;;
4504;SDS011;2265;48.794;9.520;2023-10-13T01:44:55;9.47;;;5.23;;
4504;SDS011;2265;48.794;9.520;2023-10-13T01:47:30;12.30;;;5.07;;
4504;SDS011;2265;48.794;9.520;2023-10-13T01:49:58;14.57;;;6.10;;
4504;SDS011;2265;48.794;9.520;2023-10-13T01:52:31;10.77;;;5.00;;
4504;SDS011;2265;48.794;9.520;2023-10-13T01:54:58;10.47;;;6.00;;
4504;SDS011;2265;48.794;9.520;2023-10-13T01:57:28;11.67;;;5.23;;
4504;SDS011;2265;48.794;9.520;2023-10-13T01:59:55;9.47;;;4.77;;
4504;SDS011;2265;48.794;9.520;2023-10-13T02:02:21;14.00;;;5.20;;
4504;SDS011;2265;48.794;9.520;2023-10-13T02:04:57;12.10;;;5.47;;
4504;SDS011;2265;48.794;9.520;2023-10-13T02:07:25;8.83;;;5.10;;
4504;SDS011;2265;48.794;9.520;2023-10-13T02:09:55;10.20;;;4.83;;
4504;SDS011;2265;48.794;9.520;2023-10-13T02:12:21;13.07;;;5.50;;
4504;SDS011;2265;48.794;9.520;2023-10-13T02:15:03;10.43;;;4.90;;
4504;SDS011;2265;48.794;9.520;2023-10-13T02:17:30;11.83;;;5.00;;
4504;SDS011;2265;48.794;9.520;2023-10-13T02:20:06;12.97;;;5.03;;
4504;SDS011;2265;48.794;9.520;2023-10-13T02:22:39;9.33;;;4.73;;
4504;SDS011;2265;48.794;9.520;2023-10-13T02:25:14;13.13;;;5.00;;
4504;SDS011;2265;48.794;9.520;2023-10-13T02:27:42;10.23;;;5.03;;
4504;SDS011;2265;48.794;9.520;2023-10-13T02:30:24;9.80;;;4.60;;
4504;SDS011;2265;48.794;9.520;2023-10-13T02:32:52;9.53;;;4.93;;
4504;SDS011;2265;48.794;9.520;2023-10-13T02:35:20;10.87;;;4.83;;
4504;SDS011;2265;48.794;9.520;2023-10-13T02:37:54;19.77;;;5.60;;
4504;SDS011;2265;48.794;9.520;2023-10-13T02:40:25;12.90;;;5.70;;
4504;SDS011;2265;48.794;9.520;2023-10-13T02:42:51;13.00;;;5.87;;
4504;SDS011;2265;48.794;9.520;2023-10-13T02:45:19;13.80;;;5.30;;
4504;SDS011;2265;48.794;9.520;2023-10-13T02:47:52;12.40;;;5.13;;
4504;SDS011;2265;48.794;9.520;2023-10-13T02:50:35;9.23;;;5.00;;
4504;SDS011;2265;48.794;9.520;2023-10-13T02:53:03;9.67;;;4.47;;
4504;SDS011;2265;48.794;9.520;2023-10-13T02:55:37;9.77;;;5.03;;
4504;SDS011;2265;48.794;9.520;2023-10-13T02:58:04;9.83;;;4.27;;
4504;SDS011;2265;48.794;9.520;2023-10-13T03:00:34;10.27;;;5.20;;
4504;SDS011;2265;48.794;9.520;2023-10-13T03:03:01;9.33;;;4.33;;
4504;SDS011;2265;48.794;9.520;2023-10-13T03:05:28;12.23;;;4.93;;
4504;SDS011;2265;48.794;9.520;2023-10-13T03:08:00;10.27;;;4.90;;
4504;SDS011;2265;48.794;9.520;2023-10-13T03:10:29;10.83;;;4.70;;
4504;SDS011;2265;48.794;9.520;2023-10-13T03:12:55;8.90;;;5.03;;
4504;SDS011;2265;48.794;9.520;2023-10-13T03:15:23;12.23;;;5.30;;
4504;SDS011;2265;48.794;9.520;2023-10-13T03:17:55;12.07;;;5.10;;
4504;SDS011;2265;48.794;9.520;2023-10-13T03:20:25;10.17;;;5.27;;
4504;SDS011;2265;48.794;9.520;2023-10-13T03:22:56;10.83;;;5.00;;
4504;SDS011;2265;48.794;9.520;2023-10-13T03:25:24;13.93;;;5.17;;
4504;SDS011;2265;48.794;9.520;2023-10-13T03:27:55;9.07;;;4.43;;
4504;SDS011;2265;48.794;9.520;2023-10-13T03:30:30;13.60;;;5.90;;
4504;SDS011;2265;48.794;9.520;2023-10-13T03:33:05;10.87;;;5.10;;
4504;SDS011;2265;48.794;9.520;2023-10-13T03:35:40;10.23;;;4.73;;
4504;SDS011;2265;48.794;9.520;2023-10-13T03:38:10;9.83;;;4.73;;
4504;SDS011;2265;48.794;9.520;2023-10-13T03:40:44;8.83;;;5.53;;
4504;SDS011;2265;48.794;9.520;2023-10-13T03:43:32;9.73;;;4.90;;
4504;SDS011;2265;48.794;9.520;2023-10-13T03:46:10;11.30;;;5.10;;
4504;SDS011;2265;48.794;9.520;2023-10-13T03:48:37;11.13;;;5.37;;
4504;SDS011;2265;48.794;9.520;2023-10-13T03:51:18;10.23;;;5.30;;
4504;SDS011;2265;48.794;9.520;2023-10-13T03:53:46;14.00;;;5.53;;
4504;SDS011;2265;48.794;9.520;2023-10-13T03:56:18;10.77;;;5.30;;
4504;SDS011;2265;48.794;9.520;2023-10-13T03:58:53;8.27;;;4.40;;
4504;SDS011;2265;48.794;9.520;2023-10-13T04:01:23;12.17;;;5.20;;
4504;SDS011;2265;48.794;9.520;2023-10-13T04:03:57;10.20;;;5.33;;
4504;SDS011;2265;48.794;9.520;2023-10-13T04:06:34;9.97;;;5.17;;
4504;SDS011;2265;48.794;9.520;2023-10-13T04:09:38;13.80;;;5.97;;
4504;SDS011;2265;48.794;9.520;2023-10-13T04:12:32;10.37;;;4.90;;
4504;SDS011;2265;48.794;9.520;2023-10-13T04:15:19;12.07;;;5.23;;
4504;SDS011;2265;48.794;9.520;2023-10-13T04:17:48;9.47;;;4.80;;
4504;SDS011;2265;48.794;9.520;2023-10-13T04:20:16;12.40;;;5.87;;
4504;SDS011;2265;48.794;9.520;2023-10-13T04:23:04;9.93;;;4.70;;
4504;SDS011;2265;48.794;9.520;2023-10-13T04:25:43;11.03;;;4.63;;
4504;SDS011;2265;48.794;9.520;2023-10-13T04:28:28;8.60;;;4.43;;
4504;SDS011;2265;48.794;9.520;2023-10-13T04:31:03;8.20;;;4.80;;
4504;SDS011;2265;48.794;9.520;2023-10-13T04:33:49;9.30;;;4.73;;
4504;SDS011;2265;48.794;9.520;2023-10-13T04:36:18;11.33;;;4.53;;
4504;SDS011;2265;48.794;9.520;2023-10-13T04:39:03;12.30;;;5.43;;
4504;SDS011;2265;48.794;9.520;2023-10-13T04:41:35;9.13;;;4.70;;
4504;SDS011;2265;48.794;9.520;2023-10-13T04:44:07;12.73;;;4.90;;
4504;SDS011;2265;48.794;9.520;2023-10-13T04:46:48;17.70;;;5.27;;
4504;SDS011;2265;48.794;9.520;2023-10-13T04:49:35;10.67;;;5.13;;
4504;SDS011;2265;48.794;9.520;2023-10-13T04:52:18;10.40;;;5.20;;
4504;SDS011;2265;48.794;9.520;2023-10-13T04:55:04;12.57;;;5.33;;
4504;SDS011;2265;48.794;9.520;2023-10-13T04:57:50;12.60;;;5.27;;
4504;SDS011;2265;48.794;9.520;2023-10-13T05:00:25;11.70;;;4.70;;
4504;SDS011;2265;48.794;9.520;2023-10-13T05:03:10;10.60;;;5.20;;
4504;SDS011;2265;48.794;9.520;2023-10-13T05:05:54;11.83;;;5.47;;
4504;SDS011;2265;48.794;9.520;2023-10-13T05:08:56;11.23;;;4.83;;
4504;SDS011;2265;48.794;9.520;2023-10-13T05:11:42;13.60;;;5.50;;
4504;SDS011;2265;48.794;9.520;2023-10-13T05:14:26;10.07;;;5.13;;
4504;SDS011;2265;48.794;9.520;2023-10-13T05:17:11;13.93;;;5.00;;
4504;SDS011;2265;48.794;9.520;2023-10-13T05:19:56;10.70;;;5.10;;
4504;SDS011;2265;48.794;9.520;2023-10-13T05:22:41;12.87;;;5.37;;
4504;SDS011;2265;48.794;9.520;2023-10-13T05:25:26;15.63;;;5.53;;
4504;SDS011;2265;48.794;9.520;2023-10-13T05:28:12;16.13;;;4.93;;
4504;SDS011;2265;48.794;9.520;2023-10-13T05:30:58;15.37;;;7.03;;
4504;SDS011;2265;48.794;9.520;2023-10-13T05:33:43;9.93;;;5.07;;
4504;SDS011;2265;48.794;9.520;2023-10-13T05:36:27;14.93;;;5.20;;
4504;SDS011;2265;48.794;9.520;2023-10-13T05:39:12;11.80;;;5.20;;
4504;SDS011;2265;48.794;9.520;2023-10-13T05:41:56;9.53;;;5.00;;
4504;SDS011;2265;48.794;9.520;2023-10-13T05:44:47;8.90;;;4.67;;
4504;SDS011;2265;48.794;9.520;2023-10-13T05:47:42;9.20;;;4.73;;
4504;SDS011;2265;48.794;9.520;2023-10-13T05:50:26;10.10;;;5.20;;
4504;SDS011;2265;48.794;9.520;2023-10-13T05:53:15;13.60;;;5.23;;
4504;SDS011;2265;48.794;9.520;2023-10-13T05:56:03;12.20;;;5.40;;
4504;SDS011;2265;48.794;9.520;2023-10-13T05:58:48;15.40;;;6.10;;
4504;SDS011;2265;48.794;9.520;2023-10-13T06:01:34;12.40;;;5.33;;
4504;SDS011;2265;48.794;9.520;2023-10-13T06:04:18;10.43;;;5.30;;
4504;SDS011;2265;48.794;9.520;2023-10-13T06:07:02;13.60;;;5.60;;
4504;SDS011;2265;48.794;9.520;2023-10-13T06:09:47;12.00;;;5.00;;
4504;SDS011;2265;48.794;9.520;2023-10-13T06:12:31;10.10;;;4.50;;
4504;SDS011;2265;48.794;9.520;2023-10-13T06:15:16;10.07;;;4.77;;
4504;SDS011;2265;48.794;9.520;2023-10-13T06:18:02;13.37;;;5.33;;
4504;SDS011;2265;48.794;9.520;2023-10-13T06:20:47;11.67;;;5.50;;
4504;SDS011;2265;48.794;9.520;2023-10-13T06:23:31;9.40;;;5.10;;
4504;SDS011;2265;48.794;9.520;2023-10-13T06:26:16;13.37;;;4.33;;
4504;SDS011;2265;48.794;9.520;2023-10-13T06:28:59;8.00;;;4.23;;
4504;SDS011;2265;48.794;9.520;2023-10-13T06:31:26;11.10;;;5.50;;
4504;SDS011;2265;48.794;9.520;2023-10-13T06:33:55;10.83;;;4.97;;
4504;SDS011;2265;48.794;9.520;2023-10-13T06:36:23;16.13;;;5.80;;
4504;SDS011;2265;48.794;9.520;2023-10-13T06:38:50;12.87;;;5.63;;
4504;SDS011;2265;48.794;9.520;2023-10-13T06:41:46;11.53;;;4.77;;
4504;SDS011;2265;48.794;9.520;2023-10-13T06:44:13;16.37;;;6.90;;
4504;SDS011;2265;48.794;9.520;2023-10-13T06:46:41;10.43;;;5.20;;
4504;SDS011;2265;48.794;9.520;2023-10-13T06:49:11;11.00;;;5.03;;
4504;SDS011;2265;48.794;9.520;2023-10-13T06:51:40;11.67;;;5.20;;
4504;SDS011;2265;48.794;9.520;2023-10-13T06:54:11;12.50;;;5.23;;
4504;SDS011;2265;48.794;9.520;2023-10-13T06:56:45;13.63;;;5.80;;
4504;SDS011;2265;48.794;9.520;2023-10-13T06:59:32;10.73;;;5.63;;
4504;SDS011;2265;48.794;9.520;2023-10-13T07:02:03;16.80;;;6.13;;
4504;SDS011;2265;48.794;9.520;2023-10-13T07:04:36;13.80;;;5.93;;
4504;SDS011;2265;48.794;9.520;2023-10-13T07:07:05;13.60;;;5.07;;
4504;SDS011;2265;48.794;9.520;2023-10-13T07:09:35;9.77;;;5.00;;
4504;SDS011;2265;48.794;9.520;2023-10-13T07:12:22;11.80;;;6.03;;
4504;SDS011;2265;48.794;9.520;2023-10-13T07:14:51;13.13;;;5.80;;
4504;SDS011;2265;48.794;9.520;2023-10-13T07:17:24;13.30;;;5.43;;
4504;SDS011;2265;48.794;9.520;2023-10-13T07:19:53;12.43;;;5.93;;
4504;SDS011;2265;48.794;9.520;2023-10-13T07:22:24;14.97;;;6.10;;
4504;SDS011;2265;48.794;9.520;2023-10-13T07:24:53;11.53;;;5.43;;
4504;SDS011;2265;48.794;9.520;2023-10-13T07:27:23;11.83;;;6.13;;
4504;SDS011;2265;48.794;9.520;2023-10-13T07:29:50;10.40;;;5.13;;
4504;SDS011;2265;48.794;9.520;2023-10-13T07:32:38;8.27;;;4.83;;
4504;SDS011;2265;48.794;9.520;2023-10-13T07:37:45;8.30;;;4.97;;
4504;SDS011;2265;48.794;9.520;2023-10-13T07:40:15;13.30;;;6.20;;
4504;SDS011;2265;48.794;9.520;2023-10-13T07:43:04;13.20;;;6.30;;
4504;SDS011;2265;48.794;9.520;2023-10-13T07:45:35;9.20;;;5.60;;
4504;SDS011;2265;48.794;9.520;2023-10-13T07:48:03;14.53;;;6.37;;
4504;SDS011;2265;48.794;9.520;2023-10-13T07:50:38;12.27;;;6.20;;
4504;SDS011;2265;48.794;9.520;2023-10-13T07:53:06;19.87;;;9.43;;
4504;SDS011;2265;48.794;9.520;2023-10-13T07:55:47;14.20;;;6.70;;
4504;SDS011;2265;48.794;9.520;2023-10-13T07:58:20;12.90;;;6.23;;
4504;SDS011;2265;48.794;9.520;2023-10-13T08:00:50;14.50;;;5.73;;
4504;SDS011;2265;48.794;9.520;2023-10-13T08:03:31;9.97;;;5.00;;
4504;SDS011;2265;48.794;9.520;2023-10-13T08:06:01;16.50;;;5.57;;
4504;SDS011;2265;48.794;9.520;2023-10-13T08:08:32;16.70;;;6.03;;
4504;SDS011;2265;48.794;9.520;2023-10-13T08:11:09;12.13;;;6.10;;
4504;SDS011;2265;48.794;9.520;2023-10-13T08:13:50;16.20;;;6.60;;
4504;SDS011;2265;48.794;9.520;2023-10-13T08:16:28;11.13;;;5.53;;
4504;SDS011;2265;48.794;9.520;2023-10-13T08:19:11;16.93;;;5.30;;
4504;SDS011;2265;48.794;9.520;2023-10-13T08:21:42;9.37;;;5.23;;
4504;SDS011;2265;48.794;9.520;2023-10-13T08:24:15;12.20;;;5.30;;
4504;SDS011;2265;48.794;9.520;2023-10-13T08:26:51;19.60;;;5.83;;
4504;SDS011;2265;48.794;9.520;2023-10-13T08:29:41;13.17;;;5.07;;
4504;SDS011;2265;48.794;9.520;2023-10-13T08:32:28;11.50;;;5.33;;
4504;SDS011;2265;48.794;9.520;2023-10-13T08:35:19;11.73;;;5.80;;
4504;SDS011;2265;48.794;9.520;2023-10-13T08:38:01;12.73;;;5.90;;
4504;SDS011;2265;48.794;9.520;2023-10-13T08:40:43;9.67;;;5.13;;
4504;SDS011;2265;48.794;9.520;2023-10-13T08:43:36;13.97;;;5.03;;
4504;SDS011;2265;48.794;9.520;2023-10-13T08:46:11;17.67;;;6.17;;
4504;SDS011;2265;48.794;9.520;2023-10-13T08:51:22;12.70;;;4.83;;
4504;SDS011;2265;48.794;9.520;2023-10-13T08:54:12;11.03;;;4.47;;
4504;SDS011;2265;48.794;9.520;2023-10-13T08:56:59;9.03;;;4.63;;
4504;SDS011;2265;48.794;9.520;2023-10-13T08:59:47;20.70;;;5.30;;
4504;SDS011;2265;48.794;9.520;2023-10-13T09:02:20;8.60;;;4.60;;
4504;SDS011;2265;48.794;9.520;2023-10-13T09:04:47;11.33;;;4.40;;
4504;SDS011;2265;48.794;9.520;2023-10-13T09:07:24;9.90;;;4.90;;
4504;SDS011;2265;48.794;9.520;2023-10-13T09:09:52;6.67;;;4.03;;
4504;SDS011;2265;48.794;9.520;2023-10-13T09:12:33;8.13;;;4.40;;
4504;SDS011;2265;48.794;9.520;2023-10-13T09:15:05;10.90;;;4.80;;
4504;SDS011;2265;48.794;9.520;2023-10-13T09:17:44;12.17;;;4.80;;
4504;SDS011;2265;48.794;9.520;2023-10-13T09:20:17;11.57;;;4.93;;
4504;SDS011;2265;48.794;9.520;2023-10-13T09:23:07;10.27;;;4.43;;
4504;SDS011;2265;48.794;9.520;2023-10-13T09:25:35;6.47;;;4.13;;
4504;SDS011;2265;48.794;9.520;2023-10-13T09:28:10;8.50;;;4.27;;
4504;SDS011;2265;48.794;9.520;2023-10-13T09:30:43;6.63;;;4.10;;
4504;SDS011;2265;48.794;9.520;2023-10-13T09:33:10;8.33;;;4.60;;
4504;SDS011;2265;48.794;9.520;2023-10-13T09:35:43;9.33;;;4.80;;
4504;SDS011;2265;48.794;9.520;2023-10-13T09:38:14;8.00;;;4.40;;
4504;SDS011;2265;48.794;9.520;2023-10-13T09:40:43;9.70;;;4.73;;
4504;SDS011;2265;48.794;9.520;2023-10-13T09:43:16;7.80;;;4.13;;
4504;SDS011;2265;48.794;9.520;2023-10-13T09:45:46;10.10;;;4.20;;
4504;SDS011;2265;48.794;9.520;2023-10-13T09:48:29;9.50;;;4.57;;
4504;SDS011;2265;48.794;9.520;2023-10-13T09:51:00;12.17;;;4.87;;
4504;SDS011;2265;48.794;9.520;2023-10-13T09:53:29;8.90;;;4.23;;
4504;SDS011;2265;48.794;9.520;2023-10-13T09:56:00;9.73;;;4.30;;
4504;SDS011;2265;48.794;9.520;2023-10-13T09:58:39;7.10;;;3.70;;
4504;SDS011;2265;48.794;9.520;2023-10-13T10:01:17;17.90;;;3.90;;
4504;SDS011;2265;48.794;9.520;2023-10-13T10:04:06;4.90;;;3.30;;
4504;SDS011;2265;48.794;9.520;2023-10-13T10:06:34;6.73;;;3.37;;
4504;SDS011;2265;48.794;9.520;2023-10-13T10:09:11;8.80;;;3.37;;
4504;SDS011;2265;48.794;9.520;2023-10-13T10:11:52;7.30;;;3.10;;
4504;SDS011;2265;48.794;9.520;2023-10-13T10:14:36;6.37;;;2.93;;
4504;SDS011;2265;48.794;9.520;2023-10-13T10:17:21;5.83;;;2.80;;
4504;SDS011;2265;48.794;9.520;2023-10-13T10:22:24;9.83;;;3.30;;
4504;SDS011;2265;48.794;9.520;2023-10-13T10:24:58;6.53;;;3.23;;
4504;SDS011;2265;48.794;9.520;2023-10-13T10:27:28;12.50;;;3.53;;
4504;SDS011;2265;48.794;9.520;2023-10-13T10:29:57;7.43;;;3.50;;
4504;SDS011;2265;48.794;9.520;2023-10-13T10:32:34;11.73;;;3.70;;
4504;SDS011;2265;48.794;9.520;2023-10-13T10:35:05;8.33;;;3.40;;
4504;SDS011;2265;48.794;9.520;2023-10-13T10:37:34;8.23;;;3.23;;
4504;SDS011;2265;48.794;9.520;2023-10-13T10:40:06;7.83;;;3.20;;
4504;SDS011;2265;48.794;9.520;2023-10-13T10:42:36;8.87;;;3.60;;
4504;SDS011;2265;48.794;9.520;2023-10-13T10:45:08;6.00;;;3.10;;
4504;SDS011;2265;48.794;9.520;2023-10-13T10:47:37;5.87;;;3.07;;
4504;SDS011;2265;48.794;9.520;2023-10-13T10:50:13;9.70;;;3.87;;
4504;SDS011;2265;48.794;9.520;2023-10-13T10:52:59;6.87;;;3.47;;
4504;SDS011;2265;48.794;9.520;2023-10-13T10:55:27;9.13;;;3.73;;
4504;SDS011;2265;48.794;9.520;2023-10-13T10:58:00;5.80;;;3.40;;
4504;SDS011;2265;48.794;9.520;2023-10-13T11:00:29;6.60;;;3.57;;
4504;SDS011;2265;48.794;9.520;2023-10-13T11:03:07;8.33;;;3.30;;
4504;SDS011;2265;48.794;9.520;2023-10-13T11:05:42;6.83;;;3.77;;
4504;SDS011;2265;48.794;9.520;2023-10-13T11:08:21;6.77;;;3.83;;
4504;SDS011;2265;48.794;9.520;2023-10-13T11:10:59;6.57;;;3.07;;
4504;SDS011;2265;48.794;9.520;2023-10-13T11:13:38;6.03;;;3.33;;
4504;SDS011;2265;48.794;9.520;2023-10-13T11:16:19;10.23;;;3.27;;
4504;SDS011;2265;48.794;9.520;2023-10-13T11:18:59;15.73;;;3.60;;
4504;SDS011;2265;48.794;9.520;2023-10-13T11:21:28;8.00;;;3.43;;
4504;SDS011;2265;48.794;9.520;2023-10-13T11:23:56;6.70;;;3.10;;
4504;SDS011;2265;48.794;9.520;2023-10-13T11:26:34;8.00;;;3.33;;
4504;SDS011;2265;48.794;9.520;2023-10-13T11:29:06;7.50;;;3.47;;
4504;SDS011;2265;48.794;9.520;2023-10-13T11:31:35;6.30;;;3.60;;
4504;SDS011;2265;48.794;9.520;2023-10-13T11:34:03;10.70;;;3.47;;
4504;SDS011;2265;48.794;9.520;2023-10-13T11:36:32;6.17;;;3.40;;
4504;SDS011;2265;48.794;9.520;2023-10-13T11:39:00;6.50;;;3.17;;
4504;SDS011;2265;48.794;9.520;2023-10-13T11:41:27;11.30;;;3.77;;
4504;SDS011;2265;48.794;9.520;2023-10-13T11:43:59;7.97;;;3.93;;
4504;SDS011;2265;48.794;9.520;2023-10-13T11:46:40;10.93;;;3.67;;
4504;SDS011;2265;48.794;9.520;2023-10-13T11:49:21;6.60;;;3.63;;
4504;SDS011;2265;48.794;9.520;2023-10-13T11:52:02;5.87;;;3.30;;
4504;SDS011;2265;48.794;9.520;2023-10-13T11:54:43;5.80;;;3.40;;
4504;SDS011;2265;48.794;9.520;2023-10-13T11:57:12;6.70;;;3.80;;
4504;SDS011;2265;48.794;9.520;2023-10-13T11:59:42;7.30;;;3.37;;
4504;SDS011;2265;48.794;9.520;2023-10-13T12:02:22;4.40;;;2.90;;
4504;SDS011;2265;48.794;9.520;2023-10-13T12:05:06;5.97;;;3.30;;
4504;SDS011;2265;48.794;9.520;2023-10-13T12:07:43;6.07;;;3.00;;
4504;SDS011;2265;48.794;9.520;2023-10-13T12:10:14;7.33;;;3.00;;
4504;SDS011;2265;48.794;9.520;2023-10-13T12:12:58;6.30;;;3.70;;
4504;SDS011;2265;48.794;9.520;2023-10-13T12:15:30;7.40;;;3.03;;
4504;SDS011;2265;48.794;9.520;2023-10-13T12:18:14;5.00;;;3.17;;
4504;SDS011;2265;48.794;9.520;2023-10-13T12:20:44;10.47;;;3.27;;
4504;SDS011;2265;48.794;9.520;2023-10-13T12:23:12;3.80;;;2.93;;
4504;SDS011;2265;48.794;9.520;2023-10-13T12:25:42;6.67;;;3.60;;
4504;SDS011;2265;48.794;9.520;2023-10-13T12:28:26;4.90;;;3.20;;
4504;SDS011;2265;48.794;9.520;2023-10-13T12:30:54;5.23;;;3.10;;
4504;SDS011;2265;48.794;9.520;2023-10-13T12:33:25;6.20;;;3.33;;
4504;SDS011;2265;48.794;9.520;2023-10-13T12:36:02;6.77;;;3.33;;
4504;SDS011;2265;48.794;9.520;2023-10-13T12:38:35;7.13;;;3.53;;
4504;SDS011;2265;48.794;9.520;2023-10-13T12:41:37;4.75;;;3.20;;
4504;SDS011;2265;48.794;9.520;2023-10-13T12:44:23;7.53;;;3.43;;
4504;SDS011;2265;48.794;9.520;2023-10-13T12:47:11;7.73;;;3.27;;
4504;SDS011;2265;48.794;9.520;2023-10-13T12:49:57;7.70;;;3.33;;
4504;SDS011;2265;48.794;9.520;2023-10-13T12:52:30;4.77;;;2.90;;
4504;SDS011;2265;48.794;9.520;2023-10-13T12:54:59;6.43;;;3.23;;
4504;SDS011;2265;48.794;9.520;2023-10-13T12:57:35;8.80;;;3.43;;
4504;SDS011;2265;48.794;9.520;2023-10-13T13:00:09;5.50;;;3.07;;
4504;SDS011;2265;48.794;9.520;2023-10-13T13:02:58;6.80;;;3.30;;
4504;SDS011;2265;48.794;9.520;2023-10-13T13:05:27;9.20;;;3.10;;
4504;SDS011;2265;48.794;9.520;2023-10-13T13:07:56;6.03;;;3.67;;
4504;SDS011;2265;48.794;9.520;2023-10-13T13:10:24;4.27;;;3.00;;
4504;SDS011;2265;48.794;9.520;2023-10-13T13:13:02;7.73;;;3.63;;
4504;SDS011;2265;48.794;9.520;2023-10-13T13:15:30;5.90;;;3.40;;
4504;SDS011;2265;48.794;9.520;2023-10-13T13:17:57;6.80;;;3.97;;
4504;SDS011;2265;48.794;9.520;2023-10-13T13:20:36;10.07;;;3.13;;
4504;SDS011;2265;48.794;9.520;2023-10-13T13:23:17;5.33;;;3.37;;
4504;SDS011;2265;48.794;9.520;2023-10-13T13:25:45;7.50;;;3.27;;
4504;SDS011;2265;48.794;9.520;2023-10-13T13:28:15;5.17;;;3.10;;
4504;SDS011;2265;48.794;9.520;2023-10-13T13:30:43;4.43;;;3.17;;
4504;SDS011;2265;48.794;9.520;2023-10-13T13:33:15;6.13;;;3.70;;
4504;SDS011;2265;48.794;9.520;2023-10-13T13:35:52;6.80;;;3.50;;
4504;SDS011;2265;48.794;9.520;2023-10-13T13:38:20;9.73;;;3.63;;
4504;SDS011;2265;48.794;9.520;2023-10-13T13:40:52;6.67;;;3.90;;
4504;SDS011;2265;48.794;9.520;2023-10-13T13:43:20;8.13;;;4.60;;
4504;SDS011;2265;48.794;9.520;2023-10-13T13:46:03;6.37;;;3.70;;
4504;SDS011;2265;48.794;9.520;2023-10-13T13:48:34;6.77;;;3.00;;
4504;SDS011;2265;48.794;9.520;2023-10-13T13:51:06;7.87;;;3.77;;
4504;SDS011;2265;48.794;9.520;2023-10-13T13:53:39;9.63;;;3.80;;
4504;SDS011;2265;48.794;9.520;2023-10-13T13:56:10;6.47;;;3.20;;
4504;SDS011;2265;48.794;9.520;2023-10-13T13:58:41;13.23;;;3.63;;
4504;SDS011;2265;48.794;9.520;2023-10-13T14:01:11;6.50;;;3.50;;
4504;SDS011;2265;48.794;9.520;2023-10-13T14:03:47;4.60;;;3.43;;
4504;SDS011;2265;48.794;9.520;2023-10-13T14:06:17;7.37;;;3.80;;
4504;SDS011;2265;48.794;9.520;2023-10-13T14:08:46;10.33;;;3.40;;
4504;SDS011;2265;48.794;9.520;2023-10-13T14:11:16;9.30;;;3.93;;
4504;SDS011;2265;48.794;9.520;2023-10-13T14:14:03;6.30;;;3.30;;
4504;SDS011;2265;48.794;9.520;2023-10-13T14:16:37;5.40;;;3.40;;
4504;SDS011;2265;48.794;9.520;2023-10-13T14:19:09;6.90;;;3.30;;
4504;SDS011;2265;48.794;9.520;2023-10-13T14:21:38;6.20;;;3.40;;
4504;SDS011;2265;48.794;9.520;2023-10-13T14:24:06;6.03;;;3.30;;
4504;SDS011;2265;48.794;9.520;2023-10-13T14:26:40;3.90;;;3.17;;
4504;SDS011;2265;48.794;9.520;2023-10-13T14:29:09;8.07;;;3.47;;
4504;SDS011;2265;48.794;9.520;2023-10-13T14:31:39;8.53;;;3.50;;
4504;SDS011;2265;48.794;9.520;2023-10-13T14:34:06;7.90;;;3.90;;
4504;SDS011;2265;48.794;9.520;2023-10-13T14:36:34;6.47;;;3.57;;
4504;SDS011;2265;48.794;9.520;2023-10-13T14:39:04;5.40;;;3.13;;
4504;SDS011;2265;48.794;9.520;2023-10-13T14:41:34;5.50;;;3.80;;
4504;SDS011;2265;48.794;9.520;2023-10-13T14:44:01;6.10;;;3.40;;
4504;SDS011;2265;48.794;9.520;2023-10-13T14:46:31;6.03;;;3.37;;
4504;SDS011;2265;48.794;9.520;2023-10-13T14:49:04;9.10;;;3.20;;
4504;SDS011;2265;48.794;9.520;2023-10-13T14:51:32;4.70;;;3.10;;
4504;SDS011;2265;48.794;9.520;2023-10-13T14:54:06;6.00;;;3.30;;
4504;SDS011;2265;48.794;9.520;2023-10-13T14:56:33;7.27;;;3.40;;
4504;SDS011;2265;48.794;9.520;2023-10-13T14:59:00;6.77;;;3.50;;
4504;SDS011;2265;48.794;9.520;2023-10-13T15:01:29;6.73;;;3.23;;
4504;SDS011;2265;48.794;9.520;2023-10-13T15:03:57;5.57;;;2.97;;
4504;SDS011;2265;48.794;9.520;2023-10-13T15:06:24;6.80;;;3.23;;
4504;SDS011;2265;48.794;9.520;2023-10-13T15:08:54;6.30;;;2.77;;
4504;SDS011;2265;48.794;9.520;2023-10-13T15:11:24;11.30;;;3.37;;
4504;SDS011;2265;48.794;9.520;2023-10-13T15:13:54;7.93;;;3.53;;
4504;SDS011;2265;48.794;9.520;2023-10-13T15:16:22;11.40;;;3.27;;
4504;SDS011;2265;48.794;9.520;2023-10-13T15:18:52;3.93;;;2.60;;
4504;SDS011;2265;48.794;9.520;2023-10-13T15:21:20;6.93;;;3.10;;
4504;SDS011;2265;48.794;9.520;2023-10-13T15:23:50;7.93;;;3.20;;
4504;SDS011;2265;48.794;9.520;2023-10-13T15:26:27;9.03;;;3.10;;
4504;SDS011;2265;48.794;9.520;2023-10-13T15:28:54;5.87;;;3.00;;
4504;SDS011;2265;48.794;9.520;2023-10-13T15:31:22;5.87;;;3.20;;
4504;SDS011;2265;48.794;9.520;2023-10-13T15:33:54;6.63;;;3.40;;
4504;SDS011;2265;48.794;9.520;2023-10-13T15:36:21;4.90;;;2.90;;
4504;SDS011;2265;48.794;9.520;2023-10-13T15:38:49;8.63;;;3.60;;
4504;SDS011;2265;48.794;9.520;2023-10-13T15:41:21;4.00;;;2.97;;
4504;SDS011;2265;48.794;9.520;2023-10-13T15:43:50;5.00;;;2.90;;
4504;SDS011;2265;48.794;9.520;2023-10-13T15:46:18;6.30;;;3.10;;
4504;SDS011;2265;48.794;9.520;2023-10-13T15:48:46;3.90;;;2.73;;
4504;SDS011;2265;48.794;9.520;2023-10-13T15:51:14;4.07;;;2.73;;
4504;SDS011;2265;48.794;9.520;2023-10-13T15:53:41;3.97;;;2.77;;
4504;SDS011;2265;48.794;9.520;2023-10-13T15:56:12;5.50;;;3.10;;
4504;SDS011;2265;48.794;9.520;2023-10-13T15:58:40;6.13;;;3.30;;
4504;SDS011;2265;48.794;9.520;2023-10-13T16:01:10;4.97;;;2.90;;